Time;durP1;ratioP1;P1;durP2;ratioP2;P2;SDS_P1;SDS_P2;PMS_P1;PMS_P2;Temp;Humidity;BMP_temperature;BMP_pressure;BME280_temperature;BME280_humidity;BME280_pressure;Samples;Min_cycle;Max_cycle;Signal;HPM_P1;HPM_P2
2022/02/24 00:00:09;;;;;;;;;20.25;19.50;;;;;12.80;55.72;101433.66;5059737;28;45240;-49
2022/02/24 00:02:34;;;;;;;;;25.50;24.25;;;;;12.78;55.76;101437.16;5066305;28;45615;-49
2022/02/24 00:05:00;;;;;;;;;21.25;17.00;;;;;12.78;55.74;101431.88;5059261;28;46148;-53
2022/02/24 00:07:26;;;;;;;;;20.75;18.50;;;;;12.76;56.05;101428.41;5059355;28;45230;-52
2022/02/24 00:09:52;;;;;;;;;22.25;19.00;;;;;12.76;55.87;101420.50;5059485;28;45517;-51
2022/02/24 00:12:17;;;;;;;;;17.00;16.50;;;;;12.76;55.83;101418.72;5059271;28;45259;-49
2022/02/24 00:14:43;;;;;;;;;16.00;14.25;;;;;12.75;55.80;101400.28;5059468;28;46363;-49
2022/02/24 00:17:08;;;;;;;;;20.00;17.50;;;;;12.75;55.90;101395.03;5059373;28;45433;-48
2022/02/24 00:19:34;;;;;;;;;19.50;16.25;;;;;12.75;55.95;101405.56;5059217;28;45389;-48
2022/02/24 00:22:00;;;;;;;;;21.25;20.25;;;;;12.72;56.06;101403.00;5057929;28;45410;-51
2022/02/24 00:24:25;;;;;;;;;15.75;15.75;;;;;12.74;56.06;101402.06;5057761;28;47369;-51
2022/02/24 00:26:51;;;;;;;;;20.00;18.75;;;;;12.74;56.05;101401.19;5057833;28;45454;-51
2022/02/24 00:29:17;;;;;;;;;14.75;13.25;;;;;12.71;56.12;101398.59;5059401;28;45332;-49
2022/02/24 00:31:43;;;;;;;;;17.75;15.00;;;;;12.69;56.08;101388.03;5058018;28;45375;-52
2022/02/24 00:34:08;;;;;;;;;17.00;16.00;;;;;12.68;56.17;101383.69;5058948;28;46575;-50
2022/02/24 00:36:34;;;;;;;;;17.50;15.25;;;;;12.68;56.21;101387.19;5059161;28;45363;-50
2022/02/24 00:38:59;;;;;;;;;18.00;17.75;;;;;12.70;55.83;101386.31;5059237;28;45316;-49
2022/02/24 00:41:24;;;;;;;;;20.00;16.25;;;;;12.68;56.05;101379.28;5060698;28;45345;-48
2022/02/24 00:43:50;;;;;;;;;19.25;18.00;;;;;12.70;56.33;101373.13;5062560;28;45246;-50
2022/02/24 00:46:15;;;;;;;;;16.50;16.50;;;;;12.70;56.05;101373.13;5061307;28;45911;-52
2022/02/24 00:48:40;;;;;;;;;21.75;18.00;;;;;12.70;56.27;101373.97;5061120;28;45285;-50
2022/02/24 00:51:06;;;;;;;;;19.75;16.00;;;;;12.70;56.21;101367.84;5062496;28;45221;-51
2022/02/24 00:53:31;;;;;;;;;19.00;16.00;;;;;12.66;55.98;101354.69;5061124;28;46374;-50
2022/02/24 00:55:57;;;;;;;;;19.75;18.75;;;;;12.72;56.39;101352.88;5062214;28;45453;-53
2022/02/24 00:58:26;;;;;;;;;19.00;17.50;;;;;12.70;56.08;101357.28;5062578;28;45741;-49
2022/02/24 01:00:52;;;;;;;;;18.75;15.25;;;;;12.70;56.21;101352.03;5062261;28;45410;-50
2022/02/24 01:03:17;;;;;;;;;19.25;18.00;;;;;12.68;56.37;101345.00;5069114;28;46706;-52
2022/02/24 01:05:42;;;;;;;;;18.00;16.25;;;;;12.71;56.08;101351.13;5062192;28;45405;-51
2022/02/24 01:08:08;;;;;;;;;18.25;15.50;;;;;12.71;56.28;101338.81;5062163;28;45669;-52
2022/02/24 01:10:33;;;;;;;;;18.25;17.00;;;;;12.70;56.27;101336.19;5060655;28;45286;-49
2022/02/24 01:12:58;;;;;;;;;16.25;16.25;;;;;12.69;56.17;101330.03;5062143;28;45396;-48
2022/02/24 01:15:24;;;;;;;;;19.75;16.75;;;;;12.67;56.46;101327.41;5062059;28;45197;-52
2022/02/24 01:17:49;;;;;;;;;24.50;19.00;;;;;12.67;56.59;101332.69;5060718;28;45228;-50
2022/02/24 01:20:15;;;;;;;;;20.75;17.00;;;;;12.68;56.58;101333.59;5061904;28;45600;-52
2022/02/24 01:22:40;;;;;;;;;20.75;18.00;;;;;12.66;56.34;101336.22;5061872;28;46131;-50
2022/02/24 01:25:06;;;;;;;;;16.50;15.50;;;;;12.67;56.25;101330.06;5061820;28;45197;-51
2022/02/24 01:27:32;;;;;;;;;21.75;17.50;;;;;12.67;56.43;101327.41;5062198;28;45247;-50
2022/02/24 01:29:58;;;;;;;;;18.25;17.50;;;;;12.65;56.75;101320.44;5061614;28;45302;-52
2022/02/24 01:32:24;;;;;;;;;15.25;15.00;;;;;12.64;56.35;101310.75;5061853;28;45241;-50
2022/02/24 01:34:49;;;;;;;;;17.50;16.00;;;;;12.65;56.36;101309.88;5061356;28;45371;-53
2022/02/24 01:37:15;;;;;;;;;18.50;16.25;;;;;12.61;56.59;101309.03;5061831;28;45352;-51
2022/02/24 01:39:40;;;;;;;;;18.75;17.50;;;;;12.62;56.37;101308.16;5061490;28;45429;-50
2022/02/24 01:42:06;;;;;;;;;19.25;17.00;;;;;12.61;56.76;101302.91;5061575;28;46009;-51
2022/02/24 01:44:42;;;;;;;;;17.50;17.00;;;;;12.61;56.55;101295.88;5060376;28;45355;-50
2022/02/24 01:47:08;;;;;;;;;19.25;18.50;;;;;12.60;56.73;101299.41;5061885;28;45255;-50
2022/02/24 01:49:33;;;;;;;;;16.50;15.50;;;;;12.60;56.67;101303.81;5061018;28;45534;-51
2022/02/24 01:52:00;;;;;;;;;15.75;14.50;;;;;12.60;56.75;101309.97;5060931;28;45327;-51
2022/02/24 01:54:25;;;;;;;;;19.00;18.00;;;;;12.57;56.60;101314.41;5061262;28;46067;-50
2022/02/24 01:56:51;;;;;;;;;20.00;17.50;;;;;12.55;56.81;101317.03;5061604;28;45206;-51
2022/02/24 01:59:16;;;;;;;;;19.75;18.00;;;;;12.51;56.80;101297.78;5061353;28;45240;-53
2022/02/24 02:01:41;;;;;;;;;22.50;20.50;;;;;12.49;57.31;101302.19;5066455;28;46219;-52
2022/02/24 02:04:07;;;;;;;;;21.00;15.00;;;;;12.46;56.94;101306.63;5062390;28;45452;-48
2022/02/24 02:06:34;;;;;;;;;23.50;22.00;;;;;12.40;56.97;101291.78;5061489;28;45807;-51
2022/02/24 02:09:00;;;;;;;;;26.25;21.00;;;;;12.37;56.99;101280.41;5060874;28;45500;-51
2022/02/24 02:11:25;;;;;;;;;23.50;21.75;;;;;12.31;57.35;101260.25;5059681;28;47549;-52
2022/02/24 02:13:51;;;;;;;;;24.00;19.25;;;;;12.31;57.43;101253.25;5059664;28;45748;-51
2022/02/24 02:16:16;;;;;;;;;20.25;17.75;;;;;12.31;57.20;101247.06;5061442;28;45302;-50
2022/02/24 02:18:42;;;;;;;;;23.75;19.00;;;;;12.29;57.38;101240.94;5060876;28;45412;-52
2022/02/24 02:21:08;;;;;;;;;20.00;18.00;;;;;12.28;57.18;101234.81;5060943;28;45327;-52
2022/02/24 02:23:34;;;;;;;;;22.50;18.75;;;;;12.30;57.35;101233.03;5060889;28;45375;-50
2022/02/24 02:25:59;;;;;;;;;19.75;19.00;;;;;12.31;57.13;101239.16;5042899;28;45275;-51
2022/02/24 02:28:26;;;;;;;;;22.00;18.50;;;;;12.30;57.29;101227.78;5059612;28;45260;-48
2022/02/24 02:30:52;;;;;;;;;20.00;18.50;;;;;12.31;57.46;101233.91;5060967;28;45332;-51
2022/02/24 02:33:17;;;;;;;;;20.75;18.75;;;;;12.31;57.27;101241.81;5060416;28;45174;-52
2022/02/24 02:35:42;;;;;;;;;17.25;16.25;;;;;12.28;57.60;101229.53;5061022;28;45356;-50
2022/02/24 02:38:08;;;;;;;;;17.25;16.75;;;;;12.30;57.45;101232.16;5060809;28;45224;-52
2022/02/24 02:40:37;;;;;;;;;20.50;19.25;;;;;12.28;57.68;101233.97;5060614;28;46114;-52
2022/02/24 02:43:07;;;;;;;;;24.50;20.50;;;;;12.27;57.91;101221.66;5060655;28;45421;-51
2022/02/24 02:45:33;;;;;;;;;20.75;18.25;;;;;12.25;57.53;101224.31;5060738;28;45322;-53
2022/02/24 02:48:00;;;;;;;;;16.50;15.00;;;;;12.24;57.87;101232.22;5060259;28;45461;-53
2022/02/24 02:50:27;;;;;;;;;20.00;16.75;;;;;12.23;57.72;101225.25;5060573;28;46331;-52
2022/02/24 02:52:53;;;;;;;;;21.00;20.25;;;;;12.21;58.00;101227.00;5060356;28;45387;-50
2022/02/24 02:55:19;;;;;;;;;17.75;14.50;;;;;12.18;57.83;101220.03;5060585;28;45345;-53
2022/02/24 02:57:45;;;;;;;;;15.50;15.50;;;;;12.16;58.20;101219.16;5060343;28;45421;-49
2022/02/24 03:00:12;;;;;;;;;20.50;13.75;;;;;12.14;58.01;101215.69;5060234;28;45853;-52
2022/02/24 03:02:38;;;;;;;;;13.00;12.00;;;;;12.09;58.21;101212.22;5067443;28;45249;-52
2022/02/24 03:05:04;;;;;;;;;18.25;17.75;;;;;12.10;58.20;101203.44;5059219;28;45359;-49
2022/02/24 03:07:30;;;;;;;;;20.00;17.75;;;;;12.08;57.87;101214.00;5060064;28;45343;-52
2022/02/24 03:09:55;;;;;;;;;16.50;16.00;;;;;12.07;58.34;101214.03;5059934;28;46311;-52
2022/02/24 03:12:21;;;;;;;;;24.25;18.25;;;;;12.05;58.10;101208.78;5060022;28;45249;-51
2022/02/24 03:14:46;;;;;;;;;19.75;16.75;;;;;12.05;58.09;101206.16;5060383;28;45528;-49
2022/02/24 03:17:12;;;;;;;;;20.00;19.25;;;;;12.01;58.16;101184.25;5060159;28;45257;-51
2022/02/24 03:19:38;;;;;;;;;18.25;15.00;;;;;12.02;58.30;101196.53;5058448;28;47244;-48
2022/02/24 03:22:08;;;;;;;;;20.75;15.50;;;;;12.02;58.11;101193.00;5059983;28;45434;-50
2022/02/24 03:24:33;;;;;;;;;16.00;14.75;;;;;12.00;58.34;101195.66;5060240;28;45249;-53
2022/02/24 03:26:59;;;;;;;;;13.25;11.25;;;;;11.99;58.28;101191.28;5059865;28;45411;-53
2022/02/24 03:29:24;;;;;;;;;18.00;15.00;;;;;11.99;58.16;101196.53;5059876;28;45390;-53
2022/02/24 03:31:50;;;;;;;;;15.75;15.75;;;;;11.99;58.23;101190.41;5059992;28;45265;-52
2022/02/24 03:34:15;;;;;;;;;10.25;7.50;;;;;11.98;58.29;101191.31;5058698;28;45309;-52
2022/02/24 03:36:40;;;;;;;;;13.00;10.75;;;;;11.94;58.40;101190.44;5059943;28;45311;-53
2022/02/24 03:39:06;;;;;;;;;13.50;12.25;;;;;11.91;58.43;101177.31;5059874;28;45400;-52
2022/02/24 03:41:32;;;;;;;;;13.50;11.75;;;;;11.92;58.59;101183.44;5058520;28;45269;-53
2022/02/24 03:43:57;;;;;;;;;13.00;10.75;;;;;11.91;58.55;101176.44;5058698;28;45323;-59
2022/02/24 03:46:23;;;;;;;;;15.75;13.50;;;;;11.89;58.37;101172.97;5058433;28;45525;-52
2022/02/24 03:48:48;;;;;;;;;14.00;13.00;;;;;11.87;58.46;101178.22;5059504;28;45396;-49
2022/02/24 03:51:15;;;;;;;;;16.75;16.25;;;;;11.87;58.25;101172.97;5060032;28;45235;-51
2022/02/24 03:53:40;;;;;;;;;15.00;15.00;;;;;11.87;58.42;101172.97;5060073;28;45244;-50
2022/02/24 03:56:06;;;;;;;;;19.00;13.50;;;;;11.88;58.32;101172.06;5059437;28;45469;-51
2022/02/24 03:58:31;;;;;;;;;16.00;15.00;;;;;11.89;58.56;101167.69;5059796;28;46037;-55
2022/02/24 04:00:56;;;;;;;;;20.75;17.75;;;;;11.90;58.49;101165.03;5058372;28;45243;-51
2022/02/24 04:03:22;;;;;;;;;18.50;12.25;;;;;11.90;58.47;101158.88;5066574;28;45145;-50
2022/02/24 04:05:48;;;;;;;;;13.00;11.25;;;;;11.90;58.54;101138.72;5059541;28;45268;-53
2022/02/24 04:08:13;;;;;;;;;20.75;19.50;;;;;11.92;58.44;101141.31;5059536;28;45326;-52
2022/02/24 04:10:39;;;;;;;;;19.50;17.50;;;;;11.92;58.71;101129.00;5059335;28;45263;-51
2022/02/24 04:13:04;;;;;;;;;22.75;17.25;;;;;11.92;58.33;101129.00;5059624;28;45348;-50
2022/02/24 04:15:29;;;;;;;;;16.25;13.50;;;;;11.94;58.54;101129.88;5060949;28;45489;-51
2022/02/24 04:17:55;;;;;;;;;22.50;17.25;;;;;11.95;58.31;101125.44;5063004;28;45357;-52
2022/02/24 04:20:20;;;;;;;;;21.50;17.75;;;;;11.96;58.66;101132.50;5061621;28;45311;-47
2022/02/24 04:22:45;;;;;;;;;23.00;20.00;;;;;11.95;58.77;101130.72;5062988;28;45315;-47
2022/02/24 04:25:11;;;;;;;;;20.25;16.25;;;;;11.96;58.64;101124.59;5062679;28;45332;-48
2022/02/24 04:27:36;;;;;;;;;19.75;17.25;;;;;11.96;58.52;101127.22;5062897;28;45887;-49
2022/02/24 04:30:03;;;;;;;;;23.50;21.00;;;;;11.97;58.67;101126.34;5061431;28;45331;-47
2022/02/24 04:32:28;;;;;;;;;23.00;17.50;;;;;11.98;58.74;101131.59;5061565;28;45418;-50
2022/02/24 04:34:53;;;;;;;;;19.50;17.25;;;;;11.99;58.75;101130.69;5061004;28;46233;-50
2022/02/24 04:37:19;;;;;;;;;18.25;16.75;;;;;11.96;58.77;101125.50;5062842;28;45249;-50
2022/02/24 04:39:44;;;;;;;;;20.50;18.75;;;;;11.96;58.72;101133.38;5062353;28;45295;-49
2022/02/24 04:42:09;;;;;;;;;19.75;16.00;;;;;11.94;58.76;101132.50;5062730;28;45226;-48
2022/02/24 04:44:35;;;;;;;;;21.25;18.00;;;;;11.92;58.90;101131.63;5061227;28;45576;-50
2022/02/24 04:47:00;;;;;;;;;22.00;19.75;;;;;11.91;58.87;101135.19;5061388;28;46207;-49
2022/02/24 04:49:26;;;;;;;;;18.25;16.25;;;;;11.88;58.88;101114.13;5062279;28;45441;-48
2022/02/24 04:51:51;;;;;;;;;20.75;18.00;;;;;11.86;59.13;101122.06;5062877;28;45249;-48
2022/02/24 04:54:17;;;;;;;;;26.25;26.25;;;;;11.85;59.06;101115.06;5062391;28;45316;-48
2022/02/24 04:56:42;;;;;;;;;19.00;17.50;;;;;11.81;59.13;101109.84;5062419;28;45489;-48
2022/02/24 04:59:07;;;;;;;;;14.75;14.75;;;;;11.82;59.17;101114.22;5062376;28;45299;-50
2022/02/24 05:01:33;;;;;;;;;18.50;15.75;;;;;11.80;59.13;101114.25;5066483;28;45283;-48
2022/02/24 05:03:58;;;;;;;;;19.75;17.25;;;;;11.81;59.09;101107.22;5064871;28;45413;-50
2022/02/24 05:06:23;;;;;;;;;20.50;17.25;;;;;11.78;59.32;101104.63;5062343;28;45988;-48
2022/02/24 05:08:49;;;;;;;;;15.25;13.00;;;;;11.78;59.13;101112.53;5061836;28;45233;-48
2022/02/24 05:11:14;;;;;;;;;23.25;17.50;;;;;11.75;59.15;101105.53;5061060;28;45387;-48
2022/02/24 05:13:39;;;;;;;;;22.25;16.00;;;;;11.70;59.20;101100.34;5062082;28;45415;-48
2022/02/24 05:16:05;;;;;;;;;21.50;16.25;;;;;11.69;59.21;101103.00;5062155;28;45354;-47
2022/02/24 05:18:31;;;;;;;;;20.50;17.25;;;;;11.69;59.20;101101.22;5061804;28;45351;-47
2022/02/24 05:20:56;;;;;;;;;18.00;16.75;;;;;11.67;59.14;101099.50;5062149;28;45341;-49
2022/02/24 05:23:22;;;;;;;;;17.00;16.50;;;;;11.65;59.17;101099.53;5060608;28;45664;-47
2022/02/24 05:25:47;;;;;;;;;14.75;12.75;;;;;11.64;59.29;101100.41;5060404;28;45872;-47
2022/02/24 05:28:12;;;;;;;;;18.75;16.50;;;;;11.61;59.15;101094.31;5059593;28;45336;-52
2022/02/24 05:30:38;;;;;;;;;19.50;14.75;;;;;11.59;59.10;101089.06;5062017;28;45303;-48
2022/02/24 05:33:05;;;;;;;;;14.75;11.50;;;;;11.57;59.20;101093.47;5061721;28;45410;-52
2022/02/24 05:35:31;;;;;;;;;14.25;14.25;;;;;11.54;59.38;101090.91;5060526;28;45703;-51
2022/02/24 05:37:56;;;;;;;;;16.00;11.75;;;;;11.51;59.20;101090.94;5061808;28;45350;-53
2022/02/24 05:40:22;;;;;;;;;10.25;10.25;;;;;11.49;59.25;101079.56;5060417;28;45225;-51
2022/02/24 05:42:47;;;;;;;;;7.25;7.25;;;;;11.46;58.98;101076.94;5060533;28;45333;-50
2022/02/24 05:45:13;;;;;;;;;12.00;10.00;;;;;11.43;59.07;101071.72;5061838;28;45174;-49
2022/02/24 05:47:38;;;;;;;;;9.00;9.00;;;;;11.40;59.02;101077.03;5060148;28;45438;-50
2022/02/24 05:50:07;;;;;;;;;12.50;9.25;;;;;11.36;58.75;101077.06;5060471;28;45491;-48
2022/02/24 05:52:36;;;;;;;;;8.50;8.00;;;;;11.31;58.64;101081.53;5061551;28;45371;-51
2022/02/24 05:55:04;;;;;;;;;7.00;6.75;;;;;11.26;58.67;101087.72;5061252;28;45398;-49
2022/02/24 05:57:29;;;;;;;;;10.00;8.00;;;;;11.22;58.47;101081.63;5060078;28;45304;-50
2022/02/24 05:59:55;;;;;;;;;14.50;13.50;;;;;11.19;58.58;101084.28;5061369;28;45319;-49
2022/02/24 06:02:20;;;;;;;;;7.50;7.00;;;;;11.13;58.54;101085.25;5068525;28;45534;-48
2022/02/24 06:04:45;;;;;;;;;10.00;7.75;;;;;11.08;58.57;101083.53;5055902;28;46582;-49
2022/02/24 06:07:11;;;;;;;;;8.75;8.75;;;;;11.02;58.32;101080.09;5061229;28;45459;-49
2022/02/24 06:09:36;;;;;;;;;8.75;6.00;;;;;10.97;58.23;101079.25;5061328;28;45327;-51
2022/02/24 06:12:02;;;;;;;;;8.25;6.50;;;;;10.91;58.09;101075.84;5061301;28;45473;-52
2022/02/24 06:14:28;;;;;;;;;6.50;6.00;;;;;10.89;58.22;101081.97;5059694;28;47436;-52
2022/02/24 06:16:53;;;;;;;;;5.50;5.50;;;;;10.84;58.12;101081.16;5061105;28;45349;-51
2022/02/24 06:19:18;;;;;;;;;7.50;7.00;;;;;10.80;58.02;101071.53;5061029;28;45501;-50
2022/02/24 06:21:44;;;;;;;;;9.00;5.50;;;;;10.76;57.90;101067.19;5061073;28;45478;-50
2022/02/24 06:24:09;;;;;;;;;6.50;6.50;;;;;10.73;57.73;101065.47;5060869;28;45606;-49
2022/02/24 06:26:35;;;;;;;;;9.75;6.75;;;;;10.72;57.95;101073.38;5061043;28;45319;-51
2022/02/24 06:29:00;;;;;;;;;7.25;6.75;;;;;10.71;57.76;101075.13;5061201;28;45238;-51
2022/02/24 06:31:26;;;;;;;;;6.00;5.25;;;;;10.67;57.67;101076.03;5059618;28;45343;-51
2022/02/24 06:33:51;;;;;;;;;8.75;6.00;;;;;10.65;57.46;101079.56;5060538;28;45877;-49
2022/02/24 06:36:16;;;;;;;;;5.50;4.50;;;;;10.63;57.60;101076.97;5042732;28;45325;-50
2022/02/24 06:38:42;;;;;;;;;9.50;7.00;;;;;10.56;57.52;101065.66;5060824;28;45166;-49
2022/02/24 06:41:07;;;;;;;;;8.50;8.50;;;;;10.57;57.70;101069.13;5059376;28;45462;-49
2022/02/24 06:43:32;;;;;;;;;6.75;5.50;;;;;10.54;57.93;101067.41;5060820;28;45325;-48
2022/02/24 06:45:58;;;;;;;;;10.25;6.00;;;;;10.54;57.57;101070.03;5060793;28;45185;-49
2022/02/24 06:48:25;;;;;;;;;7.75;5.00;;;;;10.53;57.63;101081.44;5060586;28;45325;-50
2022/02/24 06:50:50;;;;;;;;;5.75;5.00;;;;;10.51;57.74;101074.44;5060654;28;45495;-48
2022/02/24 06:53:16;;;;;;;;;6.25;5.00;;;;;10.50;57.55;101080.56;5076151;28;47182;-51
2022/02/24 06:55:41;;;;;;;;;7.75;5.25;;;;;10.49;57.49;101079.72;5075954;27;45350;-48
2022/02/24 06:58:07;;;;;;;;;8.75;5.50;;;;;10.43;57.75;101082.41;5060668;28;45307;-50
2022/02/24 07:00:33;;;;;;;;;5.75;4.25;;;;;10.41;57.54;101081.53;5060476;28;45276;-52
2022/02/24 07:02:58;;;;;;;;;9.25;6.00;;;;;10.41;57.42;101084.16;5067042;28;47203;-51
2022/02/24 07:05:24;;;;;;;;;6.75;6.25;;;;;10.38;57.66;101076.31;5060437;28;45306;-52
2022/02/24 07:07:50;;;;;;;;;7.25;6.00;;;;;10.35;57.52;101082.44;5060254;28;45193;-52
2022/02/24 07:10:15;;;;;;;;;6.25;4.50;;;;;10.36;57.52;101080.69;5060109;28;45186;-52
2022/02/24 07:12:42;;;;;;;;;7.00;6.00;;;;;10.33;57.29;101078.06;5060144;28;46082;-50
2022/02/24 07:15:09;;;;;;;;;7.25;6.00;;;;;10.32;57.47;101079.81;5060221;28;45268;-51
2022/02/24 07:17:53;;;;;;;;;7.00;6.00;;;;;10.31;57.36;101070.19;5058950;28;45343;-47
2022/02/24 07:20:19;;;;;;;;;7.50;6.25;;;;;10.25;57.33;101070.22;5060022;28;45301;-47
2022/02/24 07:22:44;;;;;;;;;10.00;6.75;;;;;10.28;57.36;101072.84;5059927;28;46067;-47
2022/02/24 07:25:14;;;;;;;;;7.00;5.25;;;;;10.27;57.36;101089.47;5058693;28;45458;-50
2022/02/24 07:27:41;;;;;;;;;12.00;7.00;;;;;10.27;57.43;101088.63;5058961;28;45292;-49
2022/02/24 07:30:07;;;;;;;;;6.00;6.00;;;;;10.28;57.44;101088.59;5059918;28;45266;-49
2022/02/24 07:32:33;;;;;;;;;6.50;4.75;;;;;10.28;57.52;101080.72;5058387;28;46423;-52
2022/02/24 07:34:59;;;;;;;;;6.00;5.00;;;;;10.25;57.58;101085.97;5059920;28;45296;-50
2022/02/24 07:37:24;;;;;;;;;10.00;6.50;;;;;10.24;57.53;101095.63;5059931;28;45512;-51
2022/02/24 07:39:50;;;;;;;;;8.50;6.00;;;;;10.23;57.31;101082.50;5059744;28;45485;-50
2022/02/24 07:42:17;;;;;;;;;14.50;6.75;;;;;10.24;57.36;101084.25;5059745;28;45427;-50
2022/02/24 07:44:44;;;;;;;;;4.00;4.00;;;;;10.25;57.46;101092.13;5058575;28;45367;-51
2022/02/24 07:47:09;;;;;;;;;9.00;5.25;;;;;10.22;57.56;101086.88;5059881;28;45397;-52
2022/02/24 07:49:35;;;;;;;;;8.25;6.00;;;;;10.25;57.53;101088.59;5059602;28;45211;-51
2022/02/24 07:52:00;;;;;;;;;8.00;7.00;;;;;10.25;57.50;101092.13;5063511;28;45616;-49
2022/02/24 07:54:25;;;;;;;;;7.00;7.00;;;;;10.25;57.50;101092.13;5063311;28;45438;-49
2022/02/24 07:56:51;;;;;;;;;12.25;6.50;;;;;10.27;57.51;101086.00;5063569;28;45227;-51
2022/02/24 07:59:20;;;;;;;;;9.25;7.50;;;;;10.27;57.57;101086.84;5062066;28;45510;-52
2022/02/24 08:01:46;;;;;;;;;5.50;5.50;;;;;10.28;57.33;101083.34;5069130;28;47138;-53
2022/02/24 08:04:11;;;;;;;;;10.75;5.25;;;;;10.29;57.31;101078.94;5064155;28;45415;-51
2022/02/24 08:06:36;;;;;;;;;8.75;7.25;;;;;10.29;57.34;101081.56;5063438;28;45384;-49
2022/02/24 08:09:06;;;;;;;;;7.00;6.00;;;;;10.29;57.26;101081.56;5062893;28;45742;-49
2022/02/24 08:11:31;;;;;;;;;7.25;6.00;;;;;10.33;57.29;101086.81;5063033;28;47142;-48
2022/02/24 08:13:57;;;;;;;;;7.25;5.50;;;;;10.35;57.48;101090.31;5062878;28;45296;-50
2022/02/24 08:16:22;;;;;;;;;11.00;8.25;;;;;10.37;57.36;101083.28;5063337;28;45228;-48
2022/02/24 08:18:47;;;;;;;;;7.75;6.50;;;;;10.39;57.50;101078.91;5062890;28;45322;-51
2022/02/24 08:21:13;;;;;;;;;10.00;7.00;;;;;10.40;57.41;101070.16;5062927;28;45240;-51
2022/02/24 08:23:38;;;;;;;;;8.25;7.25;;;;;10.47;57.44;101064.84;5062921;28;45248;-52
2022/02/24 08:26:03;;;;;;;;;6.00;6.00;;;;;10.48;57.24;101056.09;5063102;28;45335;-49
2022/02/24 08:28:29;;;;;;;;;7.00;5.25;;;;;10.51;57.36;101041.13;5062945;28;45609;-51
2022/02/24 08:30:54;;;;;;;;;8.50;4.00;;;;;10.54;57.40;101048.13;5062752;28;46154;-51
2022/02/24 08:33:20;;;;;;;;;6.75;4.75;;;;;10.57;57.45;101050.75;5061220;28;45454;-49
2022/02/24 08:35:45;;;;;;;;;8.50;6.00;;;;;10.58;57.59;101047.22;5062979;28;46053;-52
2022/02/24 08:38:11;;;;;;;;;7.75;7.75;;;;;10.57;57.47;101046.34;5062739;28;45320;-49
2022/02/24 08:40:36;;;;;;;;;10.00;6.25;;;;;10.60;57.50;101045.44;5062514;28;46060;-51
2022/02/24 08:43:01;;;;;;;;;8.50;5.00;;;;;10.63;57.50;101055.94;5062575;28;45394;-50
2022/02/24 08:45:28;;;;;;;;;7.00;5.50;;;;;10.68;57.31;101058.53;5062949;28;45364;-50
2022/02/24 08:47:54;;;;;;;;;4.50;4.25;;;;;10.71;57.21;101050.59;5062403;28;45511;-51
2022/02/24 08:50:19;;;;;;;;;4.00;3.00;;;;;10.71;57.17;101042.72;5062500;28;45415;-51
2022/02/24 08:52:45;;;;;;;;;4.00;3.75;;;;;10.72;57.25;101050.59;5061293;28;45454;-49
2022/02/24 08:55:11;;;;;;;;;4.50;4.00;;;;;10.78;57.14;101051.41;5061252;28;45328;-50
2022/02/24 08:57:36;;;;;;;;;6.00;4.00;;;;;10.82;57.23;101050.50;5062351;28;45247;-51
2022/02/24 09:00:08;;;;;;;;;4.00;4.00;;;;;10.84;57.65;101046.97;5062357;28;46029;-47
2022/02/24 09:02:33;;;;;;;;;4.00;4.00;;;;;10.86;57.12;101047.81;5068973;28;45339;-51
2022/02/24 09:04:59;;;;;;;;;4.50;3.75;;;;;10.87;57.06;101032.94;5062629;28;45369;-51
2022/02/24 09:07:24;;;;;;;;;7.50;5.00;;;;;10.88;57.14;101025.00;5062089;28;45276;-51
2022/02/24 09:09:49;;;;;;;;;5.25;4.25;;;;;10.91;57.20;101045.16;5062080;28;45193;-48
2022/02/24 09:12:15;;;;;;;;;4.75;4.75;;;;;10.94;57.06;101050.34;5062034;28;45224;-48
2022/02/24 09:14:40;;;;;;;;;9.00;5.75;;;;;10.96;56.92;101058.25;5062487;28;45245;-50
2022/02/24 09:17:06;;;;;;;;;6.75;4.75;;;;;10.96;56.97;101039.84;5062042;28;45448;-48
2022/02/24 09:19:31;;;;;;;;;6.00;4.75;;;;;11.02;57.06;101042.41;5061859;28;45990;-48
2022/02/24 09:21:57;;;;;;;;;3.25;3.25;;;;;11.03;56.75;101046.75;5061979;28;45364;-51
2022/02/24 09:24:22;;;;;;;;;6.25;5.25;;;;;11.06;57.10;101055.47;5062206;28;45228;-47
2022/02/24 09:26:48;;;;;;;;;4.75;3.00;;;;;11.06;57.01;101047.59;5061965;28;45236;-49
2022/02/24 09:29:14;;;;;;;;;6.50;4.00;;;;;11.09;56.91;101062.47;5061972;28;47046;-51
2022/02/24 09:31:40;;;;;;;;;3.75;2.00;;;;;11.08;57.02;101062.50;5061683;28;45442;-47
2022/02/24 09:34:06;;;;;;;;;3.25;2.00;;;;;11.08;56.82;101052.88;5062015;28;45333;-47
2022/02/24 09:36:32;;;;;;;;;3.50;3.00;;;;;11.12;56.76;101056.31;5061752;28;45552;-47
2022/02/24 09:38:58;;;;;;;;;1.75;1.00;;;;;11.10;56.74;101050.22;5061686;28;45479;-47
2022/02/24 09:41:25;;;;;;;;;5.00;4.00;;;;;11.08;56.72;101051.97;5061678;28;45350;-50
2022/02/24 09:43:51;;;;;;;;;3.00;2.75;;;;;11.12;56.78;101056.31;5061861;28;44702;-50
2022/02/24 09:46:17;;;;;;;;;5.50;3.50;;;;;11.11;56.82;101054.59;5061408;28;45488;-47
2022/02/24 09:48:44;;;;;;;;;5.50;3.00;;;;;11.10;56.77;101061.59;5061196;28;47120;-51
2022/02/24 09:51:14;;;;;;;;;4.50;4.50;;;;;11.11;56.81;101047.56;5061467;28;45348;-51
2022/02/24 09:53:40;;;;;;;;;3.50;2.50;;;;;11.11;56.87;101028.28;5060316;28;45292;-51
2022/02/24 09:56:13;;;;;;;;;3.00;2.00;;;;;11.09;56.95;101035.31;5059934;28;45533;-49
2022/02/24 09:58:38;;;;;;;;;6.00;3.00;;;;;11.13;56.66;101023.84;5061518;28;46260;-50
2022/02/24 10:01:04;;;;;;;;;3.00;2.50;;;;;11.14;56.93;101025.59;5061231;28;45256;-48
2022/02/24 10:03:40;;;;;;;;;3.25;3.00;;;;;11.11;56.93;101009.88;5068296;28;45250;-50
2022/02/24 10:06:07;;;;;;;;;7.00;4.00;;;;;11.19;56.87;101005.38;5061533;28;45189;-48
2022/02/24 10:08:35;;;;;;;;;5.00;3.25;;;;;11.20;56.70;101017.63;5061163;28;47078;-50
2022/02/24 10:11:02;;;;;;;;;2.00;1.00;;;;;11.21;56.75;101017.63;5061114;28;45438;-48
2022/02/24 10:13:29;;;;;;;;;3.75;2.50;;;;;11.26;56.72;101011.41;5060738;28;45361;-47
2022/02/24 10:16:00;;;;;;;;;3.75;2.00;;;;;11.28;56.80;101021.06;5061228;28;45490;-47
2022/02/24 10:18:28;;;;;;;;;2.75;2.75;;;;;11.30;56.80;101014.00;5060851;28;46179;-49
2022/02/24 10:21:15;;;;;;;;;2.25;1.50;;;;;11.37;56.75;101010.41;5061063;28;45391;-47
2022/02/24 10:23:40;;;;;;;;;4.00;2.00;;;;;11.44;56.69;101005.91;5060861;28;45302;-48
2022/02/24 10:26:09;;;;;;;;;2.00;2.00;;;;;11.52;56.63;100998.81;5061134;28;45242;-52
2022/02/24 10:28:48;;;;;;;;;3.00;3.00;;;;;11.55;56.75;101017.16;5060974;28;46355;-52
2022/02/24 10:31:19;;;;;;;;;1.50;1.25;;;;;11.56;56.59;100997.00;5059521;28;45460;-50
2022/02/24 10:33:51;;;;;;;;;2.25;1.00;;;;;11.66;56.65;101002.97;5060819;28;45286;-49
2022/02/24 10:36:22;;;;;;;;;1.25;1.00;;;;;11.78;56.42;101008.06;5060789;28;45243;-51
2022/02/24 10:39:03;;;;;;;;;3.75;1.75;;;;;11.83;56.51;101024.66;5059459;28;46406;-50
2022/02/24 10:41:35;;;;;;;;;2.25;2.00;;;;;11.87;56.56;101014.97;5060549;28;45267;-51
2022/02/24 10:44:22;;;;;;;;;2.00;1.00;;;;;11.94;56.51;101000.81;5060905;28;45269;-50
2022/02/24 10:47:12;;;;;;;;;4.00;1.50;;;;;11.99;56.42;101001.63;5060810;28;45220;-53
2022/02/24 10:49:40;;;;;;;;;1.00;1.00;;;;;12.02;56.58;101014.78;5059167;28;46322;-53
2022/02/24 10:52:21;;;;;;;;;4.00;3.00;;;;;12.13;56.47;101024.28;5060544;28;45265;-55
2022/02/24 10:54:58;;;;;;;;;4.00;2.00;;;;;12.15;56.62;101033.00;5060642;28;45395;-53
2022/02/24 10:57:26;;;;;;;;;3.75;3.00;;;;;12.17;56.40;101032.06;5060531;28;45466;-47
2022/02/24 10:59:55;;;;;;;;;5.75;3.25;;;;;12.19;56.49;101035.56;5060421;28;47464;-53
2022/02/24 11:02:21;;;;;;;;;2.50;2.00;;;;;12.19;56.27;101003.94;5066183;28;45443;-48
2022/02/24 11:04:48;;;;;;;;;2.00;1.00;;;;;12.20;56.23;101023.28;5060627;28;45417;-51
2022/02/24 11:07:15;;;;;;;;;3.00;1.00;;;;;12.26;56.28;101004.69;5060287;28;45310;-52
2022/02/24 11:09:43;;;;;;;;;3.50;2.00;;;;;12.28;56.19;100997.66;5058784;28;45991;-52
2022/02/24 11:12:12;;;;;;;;;3.00;2.00;;;;;12.28;56.24;100992.38;5060270;28;45187;-52